Time;durP1;ratioP1;P1;durP2;ratioP2;P2;SDS_P1;SDS_P2;PMS_P1;PMS_P2;Temp;Humidity;BMP_temperature;BMP_pressure;BME280_temperature;BME280_humidity;BME280_pressure;Samples;Min_cycle;Max_cycle;Signal;HPM_P1;HPM_P2
2021/04/23 00:02:18;;;;;;;31.13;9.38;;;;;;;3.94;89.17;102441.38;4988901;28;20253;-75
2021/04/23 00:04:43;;;;;;;25.80;8.63;;;;;;;4.00;89.02;102441.13;5023933;28;20144;-76
2021/04/23 00:07:09;;;;;;;26.55;8.80;;;;;;;4.08;88.63;102443.41;5015996;28;20494;-74
2021/04/23 00:09:36;;;;;;;26.52;9.20;;;;;;;4.09;88.64;102442.53;4988400;28;20042;-75
2021/04/23 00:12:10;;;;;;;29.73;9.20;;;;;;;4.20;88.60;102447.25;4972932;28;20053;-74
2021/04/23 00:14:41;;;;;;;24.33;7.65;;;;;;;4.26;87.88;102447.84;5025251;28;20053;-77
2021/04/23 00:17:09;;;;;;;27.17;8.63;;;;;;;4.20;88.54;102442.06;5003765;28;20095;-75
2021/04/23 00:19:35;;;;;;;29.27;8.52;;;;;;;4.10;88.60;102441.59;5029789;28;20049;-78
2021/04/23 00:22:01;;;;;;;27.80;8.73;;;;;;;4.28;86.81;102434.81;4984843;28;20160;-77
2021/04/23 00:24:27;;;;;;;23.50;7.80;;;;;;;4.23;86.75;102439.34;5005012;28;20049;-78
2021/04/23 00:26:55;;;;;;;28.02;8.00;;;;;;;4.14;86.89;102439.72;4979509;28;20082;-77
2021/04/23 00:29:21;;;;;;;23.35;7.63;;;;;;;4.00;87.50;102442.88;5014949;28;20126;-77
2021/04/23 00:34:33;;;;;;;23.80;7.25;;;;;;;3.74;87.33;102436.16;5005510;28;20214;-74
2021/04/23 00:37:00;;;;;;;20.77;7.30;;;;;;;3.70;87.13;102441.44;4974267;28;20655;-76
2021/04/23 00:39:26;;;;;;;26.38;7.68;;;;;;;3.69;87.21;102434.56;4977037;28;20049;-77
2021/04/23 00:41:52;;;;;;;28.63;7.78;;;;;;;3.65;87.67;102442.53;4972835;28;20062;-76
2021/04/23 00:44:18;;;;;;;28.60;7.88;;;;;;;3.51;87.96;102436.13;4988223;28;20054;-77
2021/04/23 00:46:44;;;;;;;24.70;7.10;;;;;;;3.41;87.51;102442.59;4973572;28;20137;-76
2021/04/23 00:49:11;;;;;;;21.25;7.32;;;;;;;3.25;87.93;102431.94;4972448;28;20111;-76
2021/04/23 00:51:43;;;;;;;24.23;7.70;;;;;;;3.28;88.46;102438.75;4974583;28;20046;-76
2021/04/23 00:54:13;;;;;;;19.92;6.85;;;;;;;3.25;88.68;102434.53;4969560;28;20047;-76
2021/04/23 00:56:40;;;;;;;24.42;7.85;;;;;;;3.25;88.66;102444.06;4979669;28;20068;-76
2021/04/23 00:59:08;;;;;;;27.33;7.72;;;;;;;3.18;88.78;102433.06;4982684;28;20074;-77
2021/04/23 01:01:39;;;;;;;24.23;8.48;;;;;;;3.31;88.69;102442.09;4989743;28;20053;-77
2021/04/23 01:04:13;;;;;;;31.52;7.95;;;;;;;3.40;88.29;102440.88;4990740;28;20119;-76
2021/04/23 01:06:39;;;;;;;24.15;8.27;;;;;;;3.36;88.18;102443.66;4982851;28;20050;-79
2021/04/23 01:09:23;;;;;;;22.00;7.57;;;;;;;3.22;88.31;102445.03;4965566;28;20584;-75
2021/04/23 01:11:50;;;;;;;27.13;8.00;;;;;;;3.34;88.20;102443.72;4976958;28;20046;-79
2021/04/23 01:14:16;;;;;;;27.65;7.93;;;;;;;3.21;87.87;102445.09;4971958;28;20050;-75
2021/04/23 01:16:42;;;;;;;22.10;7.55;;;;;;;3.11;88.49;102445.41;4976723;28;20050;-76
2021/04/23 01:19:16;;;;;;;31.38;8.75;;;;;;;3.10;88.74;102438.53;4982257;28;20046;-77
2021/04/23 01:21:42;;;;;;;21.45;7.18;;;;;;;3.05;89.21;102435.28;4993793;28;20046;-81
2021/04/23 01:24:10;;;;;;;18.85;7.60;;;;;;;3.02;88.80;102434.53;4990949;28;20141;-76
2021/04/23 01:26:41;;;;;;;21.95;7.53;;;;;;;3.03;88.89;102433.63;4990834;28;20557;-77
2021/04/23 01:29:08;;;;;;;20.23;6.65;;;;;;;3.03;89.10;102444.88;5018788;28;20050;-80
2021/04/23 01:31:37;;;;;;;24.92;7.68;;;;;;;3.19;89.28;102444.28;4980973;28;20034;-78
2021/04/23 01:34:14;;;;;;;27.83;7.70;;;;;;;3.27;89.27;102444.84;5027764;28;20458;-78
2021/04/23 01:36:41;;;;;;;17.58;7.05;;;;;;;3.23;89.42;102444.09;5001235;28;20049;-80
2021/04/23 01:39:10;;;;;;;32.67;6.80;;;;;;;3.28;89.12;102444.78;5015826;28;20113;-77
2021/04/23 01:41:36;;;;;;;32.22;9.23;;;;;;;3.47;88.55;102441.50;5011646;28;20474;-80
2021/04/23 01:44:03;;;;;;;25.67;6.93;;;;;;;3.46;88.15;102443.22;5013524;28;20042;-77
2021/04/23 01:46:33;;;;;;;28.15;8.02;;;;;;;3.49;88.26;102440.53;5018077;28;20124;-79
2021/04/23 01:49:10;;;;;;;20.35;6.85;;;;;;;3.60;88.25;102440.13;4983917;28;20058;-81
2021/04/23 01:51:51;;;;;;;21.83;7.50;;;;;;;3.71;88.31;102431.91;4995240;28;20085;-77
2021/04/23 01:54:17;;;;;;;23.05;6.80;;;;;;;3.86;87.88;102444.28;5016662;28;20056;-75
2021/04/23 01:56:43;;;;;;;29.38;8.15;;;;;;;4.02;87.15;102443.66;4990853;28;20049;-77
2021/04/23 01:59:11;;;;;;;25.75;7.93;;;;;;;4.19;86.40;102446.41;5012007;28;20045;-78
2021/04/23 02:01:37;;;;;;;26.38;7.65;;;;;;;4.26;86.22;102450.44;4995667;28;20034;-80
2021/04/23 02:04:06;;;;;;;27.65;8.00;;;;;;;4.33;87.05;102450.19;4995823;28;20053;-78
2021/04/23 02:06:32;;;;;;;22.00;7.00;;;;;;;4.32;86.97;102451.13;4998419;28;20072;-76
2021/04/23 02:08:58;;;;;;;25.92;7.00;;;;;;;4.36;86.83;102452.66;5010750;28;20502;-77
2021/04/23 02:11:23;;;;;;;24.45;7.55;;;;;;;4.34;86.40;102444.94;5005376;28;20042;-75
2021/04/23 02:13:51;;;;;;;22.23;7.40;;;;;;;4.38;86.00;102448.25;5012056;28;20114;-74
2021/04/23 02:16:19;;;;;;;22.38;7.15;;;;;;;4.19;86.44;102453.38;5036134;28;20507;-79
2021/04/23 02:18:45;;;;;;;20.60;7.03;;;;;;;4.06;86.15;102450.41;4992134;28;20034;-76
2021/04/23 02:21:12;;;;;;;23.27;6.97;;;;;;;3.89;86.87;102443.31;4991421;28;20045;-78
2021/04/23 02:23:41;;;;;;;24.35;6.50;;;;;;;3.79;87.03;102452.38;5010644;28;20052;-78
2021/04/23 02:26:07;;;;;;;25.23;6.80;;;;;;;3.77;87.39;102456.75;5024759;28;20038;-80
2021/04/23 02:28:33;;;;;;;20.75;6.65;;;;;;;3.84;87.15;102458.22;4983422;28;20757;-76
2021/04/23 02:31:09;;;;;;;22.42;6.68;;;;;;;3.82;87.22;102454.84;4968489;28;20038;-79
2021/04/23 02:33:35;;;;;;;28.35;6.82;;;;;;;3.83;87.77;102459.97;5007387;28;20046;-79
2021/04/23 02:36:02;;;;;;;22.42;6.63;;;;;;;3.88;87.42;102463.25;5028795;28;20046;-77
2021/04/23 02:38:28;;;;;;;24.92;7.07;;;;;;;3.86;87.13;102459.00;5015381;28;20491;-79
2021/04/23 02:40:56;;;;;;;22.42;6.40;;;;;;;3.79;87.44;102460.19;5020237;28;20045;-79
2021/04/23 02:43:26;;;;;;;22.10;6.28;;;;;;;3.85;87.32;102467.72;5002316;28;20181;-79
2021/04/23 02:45:52;;;;;;;27.58;6.95;;;;;;;3.91;86.16;102472.66;4995879;28;20120;-81
2021/04/23 02:48:19;;;;;;;19.55;6.40;;;;;;;3.84;86.14;102476.38;5009408;28;20057;-77
2021/04/23 02:50:48;;;;;;;21.10;6.35;;;;;;;3.78;86.25;102474.88;4992667;28;20065;-76
2021/04/23 02:53:15;;;;;;;20.85;5.82;;;;;;;3.89;86.10;102477.91;4992121;28;20046;-77
2021/04/23 02:55:41;;;;;;;20.67;5.80;;;;;;;3.82;85.71;102478.19;4994387;28;20049;-77
2021/04/23 02:58:11;;;;;;;21.55;6.53;;;;;;;3.85;85.84;102478.94;4988419;28;20532;-80
2021/04/23 03:00:40;;;;;;;25.38;5.38;;;;;;;3.89;83.96;102475.31;4987739;28;20033;-77
2021/04/23 03:03:08;;;;;;;26.08;4.78;;;;;;;3.92;83.46;102468.28;4994423;28;20045;-77
2021/04/23 03:05:36;;;;;;;19.77;4.80;;;;;;;4.01;82.70;102480.91;5007931;28;20041;-77
2021/04/23 03:08:03;;;;;;;25.80;4.95;;;;;;;4.07;82.94;102483.28;5007414;28;20056;-75
2021/04/23 03:10:32;;;;;;;17.83;4.53;;;;;;;4.12;82.76;102481.31;4992293;28;20045;-77
2021/04/23 03:13:07;;;;;;;15.13;4.40;;;;;;;4.06;82.53;102477.22;5024310;28;20053;-78
2021/04/23 03:15:33;;;;;;;26.90;4.68;;;;;;;4.06;82.90;102477.22;4980211;28;20050;-78
2021/04/23 03:18:00;;;;;;;18.08;3.78;;;;;;;4.05;83.01;102487.66;4995469;28;20539;-78
2021/04/23 03:20:28;;;;;;;16.65;4.95;;;;;;;4.11;82.59;102487.44;4976692;28;20046;-77
2021/04/23 03:22:55;;;;;;;19.63;4.53;;;;;;;4.10;82.68;102475.34;4981171;28;20125;-78
2021/04/23 03:25:21;;;;;;;26.15;4.65;;;;;;;4.09;82.62;102487.50;4974147;28;20054;-76
2021/04/23 03:27:47;;;;;;;17.13;4.22;;;;;;;4.21;81.05;102469.72;4989988;28;20741;-78
2021/04/23 03:30:18;;;;;;;23.63;3.90;;;;;;;4.23;80.04;102484.34;4991054;28;20050;-80
2021/04/23 03:32:44;;;;;;;20.05;4.63;;;;;;;4.38;79.47;102484.63;4981578;28;20046;-79
2021/04/23 03:35:11;;;;;;;19.75;4.13;;;;;;;4.35;78.58;102476.94;4989120;28;20496;-78
2021/04/23 03:37:46;;;;;;;22.55;4.15;;;;;;;4.40;77.68;102485.41;4988411;28;20447;-78
2021/04/23 03:40:14;;;;;;;18.25;3.63;;;;;;;4.33;78.69;102482.19;4978136;28;20050;-78
2021/04/23 03:42:40;;;;;;;21.38;4.20;;;;;;;4.29;79.04;102491.03;4973285;28;20074;-76
2021/04/23 03:45:08;;;;;;;17.90;4.60;;;;;;;4.24;79.38;102490.41;4972439;28;20132;-78
2021/04/23 03:47:33;;;;;;;24.73;3.97;;;;;;;4.31;77.57;102496.16;4989700;28;20516;-79
2021/04/23 03:49:59;;;;;;;19.27;3.85;;;;;;;4.27;77.71;102498.88;4974016;28;20038;-79
2021/04/23 03:52:25;;;;;;;23.77;4.00;;;;;;;4.29;77.92;102502.28;4979788;28;20049;-78
2021/04/23 03:54:51;;;;;;;23.50;4.00;;;;;;;4.33;77.97;102504.75;4958297;28;20042;-79
2021/04/23 03:57:16;;;;;;;19.77;4.30;;;;;;;4.39;77.45;102510.56;4985959;28;20587;-78
2021/04/23 03:59:42;;;;;;;23.33;3.88;;;;;;;4.40;78.13;102506.19;4981989;28;20050;-80
2021/04/23 04:02:08;;;;;;;21.38;4.18;;;;;;;4.42;78.01;102496.56;4955853;28;20137;-78
2021/04/23 04:04:33;;;;;;;21.15;4.93;;;;;;;4.50;77.78;102499.69;4972232;28;20081;-79
2021/04/23 04:06:59;;;;;;;18.85;4.20;;;;;;;4.42;78.13;102493.97;4988354;28;20042;-77
2021/04/23 04:09:25;;;;;;;22.67;4.82;;;;;;;4.37;78.34;102506.31;4969845;28;20323;-76
2021/04/23 04:11:51;;;;;;;18.80;4.28;;;;;;;4.36;78.24;102509.81;4954927;28;20113;-79
2021/04/23 04:14:16;;;;;;;19.38;3.90;;;;;;;4.35;77.15;102510.72;4974138;28;20058;-78
2021/04/23 04:16:42;;;;;;;17.38;3.83;;;;;;;4.45;77.37;102506.84;4988821;28;20112;-77
2021/04/23 04:19:08;;;;;;;19.40;3.75;;;;;;;4.54;75.44;102503.00;4972315;28;20058;-79
2021/04/23 04:21:33;;;;;;;25.05;4.18;;;;;;;4.56;77.29;102514.19;4997914;28;20130;-78
2021/04/23 04:23:59;;;;;;;15.80;3.28;;;;;;;4.54;76.88;102510.81;4971194;28;20046;-76
2021/04/23 04:26:25;;;;;;;16.05;3.30;;;;;;;4.54;77.21;102516.00;4968569;28;20117;-77
2021/04/23 04:28:51;;;;;;;18.50;3.58;;;;;;;4.71;76.63;102510.97;4999797;28;20519;-75
2021/04/23 04:31:16;;;;;;;24.48;4.13;;;;;;;4.72;77.09;102512.63;4972221;28;20047;-78
2021/04/23 04:33:42;;;;;;;23.25;3.78;;;;;;;4.73;76.45;102516.06;4986874;28;20115;-79
2021/04/23 04:36:09;;;;;;;23.42;4.22;;;;;;;4.72;76.92;102523.03;4975361;28;20503;-79
2021/04/23 04:38:35;;;;;;;15.23;3.50;;;;;;;4.71;75.65;102517.91;4970756;28;20041;-78
2021/04/23 04:41:01;;;;;;;16.83;3.30;;;;;;;4.83;73.56;102527.78;4982591;28;20487;-80
2021/04/23 04:43:29;;;;;;;21.05;3.38;;;;;;;4.75;72.86;102517.72;5008526;28;20042;-77
2021/04/23 04:45:54;;;;;;;26.65;3.25;;;;;;;4.77;71.39;102534.09;5011377;28;20057;-80
2021/04/23 04:48:20;;;;;;;20.25;3.08;;;;;;;4.91;73.03;102530.06;5006370;28;20037;-80
2021/04/23 04:50:52;;;;;;;29.98;3.38;;;;;;;4.91;72.63;102538.69;5003278;28;20165;-80
2021/04/23 04:53:18;;;;;;;27.53;2.93;;;;;;;5.00;72.69;102524.47;4984108;28;20565;-78
2021/04/23 04:55:46;;;;;;;21.73;2.75;;;;;;;4.99;72.24;102539.22;5022421;28;20041;-79
2021/04/23 04:58:15;;;;;;;25.77;3.42;;;;;;;4.97;72.13;102535.00;4992340;28;20050;-77
2021/04/23 05:00:42;;;;;;;19.02;2.40;;;;;;;5.03;71.54;102535.56;4976553;28;20121;-78
2021/04/23 05:03:09;;;;;;;22.17;2.83;;;;;;;4.96;72.35;102546.31;4992332;28;20048;-80
2021/04/23 05:05:36;;;;;;;15.82;3.08;;;;;;;4.93;72.70;102541.22;5011486;28;20109;-79
2021/04/23 05:08:02;;;;;;;26.55;3.47;;;;;;;4.79;72.56;102542.66;5015437;28;20596;-82
2021/04/23 05:10:28;;;;;;;12.10;2.88;;;;;;;4.80;72.17;102549.56;4993867;28;20038;-82
2021/04/23 05:12:54;;;;;;;26.13;2.88;;;;;;;4.74;72.83;102544.59;5011429;28;20046;-76
2021/04/23 05:15:20;;;;;;;23.38;3.28;;;;;;;4.77;72.88;102552.28;5009262;28;20057;-81
2021/04/23 05:17:47;;;;;;;21.02;3.38;;;;;;;4.77;72.72;102552.28;4997213;28;20052;-77
2021/04/23 05:20:14;;;;;;;18.55;2.60;;;;;;;4.90;72.92;102560.44;4982515;28;20065;-78
2021/04/23 05:22:40;;;;;;;23.33;3.40;;;;;;;4.89;73.51;102561.31;4999925;28;20038;-80
2021/04/23 05:25:09;;;;;;;21.48;4.03;;;;;;;5.01;72.79;102568.63;5019365;28;20048;-77
2021/04/23 05:27:35;;;;;;;23.23;3.92;;;;;;;5.03;72.80;102574.59;4998297;28;20034;-76
2021/04/23 05:30:04;;;;;;;19.38;2.80;;;;;;;5.04;73.37;102575.44;5005875;28;20073;-79
2021/04/23 05:32:30;;;;;;;13.77;2.97;;;;;;;5.24;73.02;102570.22;5015682;28;20049;-77
2021/04/23 05:34:56;;;;;;;22.52;3.72;;;;;;;5.20;71.77;102567.81;4982203;28;20049;-80
2021/04/23 05:37:22;;;;;;;16.58;2.92;;;;;;;5.36;72.14;102573.19;4997218;28;20053;-78
2021/04/23 05:39:49;;;;;;;28.85;3.67;;;;;;;5.51;72.92;102577.72;4997349;28;20387;-79
2021/04/23 05:42:15;;;;;;;23.58;3.40;;;;;;;5.46;72.24;102579.66;4996595;28;20665;-80
2021/04/23 05:44:42;;;;;;;26.08;2.78;;;;;;;5.51;72.24;102576.88;4996092;28;20069;-76
2021/04/23 05:47:09;;;;;;;17.58;2.92;;;;;;;5.62;71.79;102588.50;5014568;28;20046;-78
2021/04/23 05:49:34;;;;;;;23.23;3.13;;;;;;;5.63;70.52;102589.31;4992260;28;20124;-78
2021/04/23 05:52:01;;;;;;;23.63;3.72;;;;;;;5.72;71.09;102594.13;4995765;28;20471;-81
2021/04/23 05:54:27;;;;;;;18.95;3.17;;;;;;;5.88;70.63;102594.28;4979286;28;20079;-79
2021/04/23 05:56:53;;;;;;;20.90;3.63;;;;;;;5.84;70.90;102603.16;4996203;28;20108;-80
2021/04/23 05:59:19;;;;;;;22.83;3.33;;;;;;;5.91;70.32;102601.09;4996719;28;20049;-80
2021/04/23 06:01:46;;;;;;;23.15;3.20;;;;;;;5.95;70.34;102607.84;4976865;28;20535;-78
2021/04/23 06:04:12;;;;;;;35.00;4.72;;;;;;;6.01;69.55;102607.63;5019830;28;20061;-74
2021/04/23 06:06:38;;;;;;;22.50;3.10;;;;;;;6.06;70.08;102602.19;5028556;28;20068;-80
2021/04/23 06:09:05;;;;;;;23.55;4.05;;;;;;;6.12;71.16;102610.56;5012980;28;20582;-81
2021/04/23 06:11:31;;;;;;;21.83;2.63;;;;;;;6.27;70.10;102602.94;5012001;28;20037;-78
2021/04/23 06:13:56;;;;;;;37.28;3.83;;;;;;;6.33;70.58;102607.84;5013147;28;20056;-79
2021/04/23 06:16:22;;;;;;;23.15;3.45;;;;;;;6.50;69.57;102607.91;5004523;28;20045;-79
2021/04/23 06:18:48;;;;;;;26.77;3.83;;;;;;;6.50;69.05;102601.81;4988899;28;20058;-79
2021/04/23 06:21:14;;;;;;;35.63;4.10;;;;;;;6.57;68.37;102614.50;5010893;28;20042;-78
2021/04/23 06:23:39;;;;;;;28.92;3.83;;;;;;;6.58;68.73;102617.94;4994503;28;20056;-77
2021/04/23 06:26:06;;;;;;;22.58;4.30;;;;;;;6.73;69.68;102614.59;4994251;28;20052;-79
2021/04/23 06:28:32;;;;;;;22.48;3.63;;;;;;;6.91;69.73;102612.84;5009623;28;20037;-76
2021/04/23 06:30:58;;;;;;;27.83;3.72;;;;;;;6.99;68.45;102635.94;5025818;28;20042;-79
2021/04/23 06:33:26;;;;;;;27.77;4.10;;;;;;;7.05;67.61;102640.84;5001869;28;20119;-79
2021/04/23 06:35:52;;;;;;;25.83;4.03;;;;;;;7.01;66.44;102632.31;5003115;28;20088;-78
2021/04/23 06:38:18;;;;;;;24.70;3.47;;;;;;;6.87;66.73;102642.59;5009184;28;20045;-79
2021/04/23 06:40:43;;;;;;;25.33;3.72;;;;;;;6.89;67.94;102635.53;4985782;28;20046;-80
2021/04/23 06:43:09;;;;;;;30.23;4.75;;;;;;;7.02;67.31;102635.75;5012295;28;20073;-78
2021/04/23 06:45:37;;;;;;;28.13;3.78;;;;;;;7.06;67.95;102644.28;4995637;28;20174;-76
2021/04/23 06:48:03;;;;;;;27.85;3.75;;;;;;;7.18;66.20;102636.69;5014754;28;20042;-76
2021/04/23 06:50:29;;;;;;;25.02;3.45;;;;;;;7.26;66.32;102640.69;4994633;28;20063;-77
2021/04/23 06:52:55;;;;;;;31.02;3.72;;;;;;;7.27;67.19;102645.81;4994952;28;20125;-75
2021/04/23 06:55:22;;;;;;;27.20;3.58;;;;;;;7.39;64.47;102626.91;5009673;28;20046;-75
2021/04/23 06:57:48;;;;;;;21.50;4.00;;;;;;;7.43;66.12;102637.19;5011570;28;20140;-74
2021/04/23 07:00:26;;;;;;;19.48;2.90;;;;;;;7.45;65.68;102638.81;4993350;28;20113;-76
2021/04/23 07:02:52;;;;;;;24.77;3.08;;;;;;;7.76;66.11;102640.66;4992874;28;20034;-77
2021/04/23 07:05:19;;;;;;;24.23;3.78;;;;;;;7.77;65.64;102642.31;5024526;28;20052;-77
2021/04/23 07:07:45;;;;;;;29.58;4.55;;;;;;;7.99;64.54;102638.56;4998729;28;20054;-77
2021/04/23 07:10:15;;;;;;;27.38;3.33;;;;;;;8.01;64.81;102643.72;4991910;28;20524;-80
2021/04/23 07:12:41;;;;;;;29.13;3.78;;;;;;;8.10;63.17;102646.69;5006254;28;20049;-78
2021/04/23 07:15:09;;;;;;;23.90;3.63;;;;;;;8.08;64.07;102651.16;5001342;28;20068;-79
2021/04/23 07:17:35;;;;;;;18.40;3.00;;;;;;;8.13;63.26;102651.72;5013941;28;20041;-79
2021/04/23 07:20:01;;;;;;;19.27;3.55;;;;;;;8.32;63.51;102651.53;4996244;28;20050;-81
2021/04/23 07:22:27;;;;;;;19.27;3.35;;;;;;;8.44;62.57;102655.31;4983728;28;20112;-80
2021/04/23 07:24:52;;;;;;;20.23;3.58;;;;;;;8.48;60.70;102650.75;4993611;28;20052;-80
2021/04/23 07:27:18;;;;;;;24.30;3.83;;;;;;;8.58;62.45;102655.34;5003766;28;20050;-79
2021/04/23 07:29:44;;;;;;;23.27;3.85;;;;;;;8.74;61.93;102668.44;4991448;28;20156;-73
2021/04/23 07:32:09;;;;;;;21.08;3.22;;;;;;;8.82;61.44;102656.69;5007754;28;20049;-79
2021/04/23 07:34:35;;;;;;;20.55;2.90;;;;;;;8.92;59.95;102658.66;4990121;28;20120;-79
2021/04/23 07:37:02;;;;;;;18.92;3.50;;;;;;;8.82;59.02;102659.31;5007180;28;20927;-77
2021/04/23 07:39:27;;;;;;;22.85;3.78;;;;;;;8.83;60.16;102674.88;4998626;28;20050;-76
2021/04/23 07:41:54;;;;;;;24.15;4.32;;;;;;;9.11;60.68;102668.06;5011391;28;20141;-76
2021/04/23 07:44:21;;;;;;;23.60;3.28;;;;;;;9.19;56.49;102675.47;4991643;28;20061;-78
2021/04/23 07:46:47;;;;;;;16.90;3.38;;;;;;;9.23;58.37;102674.34;4988205;28;20043;-77
2021/04/23 07:49:13;;;;;;;26.70;3.78;;;;;;;9.32;56.72;102679.03;4991277;28;20037;-78
2021/04/23 07:51:39;;;;;;;15.80;2.47;;;;;;;9.29;58.30;102679.25;4993423;28;20046;-78
2021/04/23 07:54:04;;;;;;;27.70;3.15;;;;;;;9.07;57.73;102685.72;4994755;28;20054;-76
2021/04/23 07:56:30;;;;;;;19.23;3.28;;;;;;;9.25;58.43;102677.72;4977448;28;20070;-78
2021/04/23 07:58:55;;;;;;;15.63;2.65;;;;;;;9.38;56.26;102683.06;4978964;28;20122;-78
2021/04/23 08:01:21;;;;;;;20.98;2.80;;;;;;;9.38;55.56;102689.19;4995030;28;20046;-79
2021/04/23 08:03:47;;;;;;;18.40;2.60;;;;;;;9.61;57.34;102679.94;5008445;28;20056;-78
2021/04/23 08:06:12;;;;;;;23.98;3.00;;;;;;;9.71;56.62;102672.34;4992806;28;20092;-76
2021/04/23 08:08:38;;;;;;;19.15;3.30;;;;;;;9.80;55.30;102676.19;4994443;28;20474;-80
2021/04/23 08:11:03;;;;;;;20.02;3.60;;;;;;;9.98;54.57;102682.06;5008605;28;20482;-80
2021/04/23 08:13:29;;;;;;;14.60;2.25;;;;;;;9.68;53.47;102680.38;4993043;28;20050;-77
2021/04/23 08:15:54;;;;;;;18.55;3.00;;;;;;;9.80;53.51;102682.28;5010553;28;20119;-78
2021/04/23 08:18:20;;;;;;;17.98;2.80;;;;;;;9.61;51.86;102681.72;4995517;28;20052;-77
2021/04/23 08:20:47;;;;;;;17.20;2.83;;;;;;;9.71;53.83;102691.53;5009642;28;20069;-77
2021/04/23 08:23:13;;;;;;;22.45;3.40;;;;;;;9.75;53.09;102693.03;4976727;28;20042;-78
2021/04/23 08:25:38;;;;;;;19.95;3.30;;;;;;;9.91;53.00;102690.31;4995313;28;20045;-79
2021/04/23 08:28:04;;;;;;;17.98;2.72;;;;;;;9.91;53.03;102692.09;5015703;28;20069;-79
2021/04/23 08:30:30;;;;;;;14.73;2.55;;;;;;;10.12;52.51;102703.88;4995826;28;20061;-77
2021/04/23 08:32:58;;;;;;;20.52;3.10;;;;;;;10.23;52.25;102697.13;4996251;28;20497;-79
2021/04/23 08:35:24;;;;;;;21.05;3.13;;;;;;;10.24;53.18;102702.25;5010136;28;20632;-77
2021/04/23 08:37:50;;;;;;;15.50;2.63;;;;;;;10.09;51.15;102698.81;4991851;28;20054;-77
2021/04/23 08:40:19;;;;;;;17.73;2.60;;;;;;;10.33;50.53;102696.47;4995960;28;20578;-77
2021/04/23 08:42:45;;;;;;;20.38;3.03;;;;;;;10.40;50.46;102699.56;5006763;28;21048;-78
2021/04/23 08:45:14;;;;;;;15.43;2.42;;;;;;;10.41;50.30;102703.84;4991668;28;20129;-78
2021/04/23 08:47:41;;;;;;;15.98;2.47;;;;;;;10.31;50.59;102708.84;4993000;28;20052;-78
2021/04/23 08:50:07;;;;;;;13.23;2.80;;;;;;;10.02;49.72;102704.53;4989595;28;20042;-76
2021/04/23 08:52:34;;;;;;;13.15;2.67;;;;;;;10.13;49.71;102702.09;4995409;28;20042;-76
2021/04/23 08:55:00;;;;;;;12.98;2.50;;;;;;;10.48;50.00;102699.91;5002779;28;20050;-77
2021/04/23 08:57:26;;;;;;;15.80;2.95;;;;;;;10.33;50.78;102714.00;4991388;28;20041;-78
2021/04/23 08:59:52;;;;;;;12.57;2.70;;;;;;;10.63;48.54;102718.25;4978507;28;20044;-77
2021/04/23 09:02:17;;;;;;;14.52;2.03;;;;;;;10.84;48.48;102722.09;4978716;28;20458;-75
2021/04/23 09:04:43;;;;;;;17.98;2.70;;;;;;;10.57;47.77;102716.84;4996673;28;20073;-76
2021/04/23 09:07:09;;;;;;;16.73;3.33;;;;;;;10.64;48.76;102712.03;4995034;28;20065;-76
2021/04/23 09:09:37;;;;;;;17.10;2.78;;;;;;;10.75;48.50;102713.97;4992495;28;20042;-78
2021/04/23 09:12:15;;;;;;;15.55;2.80;;;;;;;10.92;47.71;102724.22;5002074;28;20072;-77
2021/04/23 09:14:40;;;;;;;19.45;2.40;;;;;;;11.08;47.13;102719.63;5009715;28;20056;-77
2021/04/23 09:17:06;;;;;;;11.82;2.40;;;;;;;11.32;47.75;102708.47;4998825;28;20420;-78
2021/04/23 09:19:34;;;;;;;13.05;3.10;;;;;;;11.45;47.97;102717.19;4991319;28;20407;-78
2021/04/23 09:22:09;;;;;;;17.77;2.75;;;;;;;11.34;47.39;102719.69;4994016;28;20057;-77
2021/04/23 09:24:40;;;;;;;13.75;2.85;;;;;;;11.46;47.87;102721.47;5011091;28;20526;-79
2021/04/23 09:27:14;;;;;;;21.85;3.58;;;;;;;11.50;46.36;102719.50;4992288;28;20113;-75
2021/04/23 09:29:46;;;;;;;17.58;2.47;;;;;;;11.28;47.29;102715.69;4988614;28;20044;-77
2021/04/23 09:32:28;;;;;;;23.67;3.05;;;;;;;11.26;46.79;102719.34;4995359;28;20050;-78
2021/04/23 09:35:04;;;;;;;19.60;3.33;;;;;;;11.49;45.81;102721.28;4991446;28;20050;-76
2021/04/23 09:37:39;;;;;;;18.77;2.65;;;;;;;11.21;47.72;102722.31;5010173;28;20771;-78
2021/04/23 09:40:07;;;;;;;17.38;2.50;;;;;;;11.34;48.12;102722.31;4981424;28;20065;-78
2021/04/23 09:42:43;;;;;;;14.18;2.50;;;;;;;11.76;45.86;102714.25;4983465;28;20130;-78
2021/04/23 09:45:10;;;;;;;13.60;2.40;;;;;;;11.77;45.49;102715.91;4970729;28;20046;-78
2021/04/23 09:47:36;;;;;;;16.20;3.08;;;;;;;11.61;44.32;102716.13;4989795;28;20050;-81
2021/04/23 09:50:04;;;;;;;16.00;2.72;;;;;;;11.88;47.38;102716.88;4973881;28;20058;-78
2021/04/23 09:52:30;;;;;;;17.13;2.30;;;;;;;12.13;45.17;102717.81;4974332;28;20050;-80
2021/04/23 09:54:58;;;;;;;18.70;3.05;;;;;;;12.15;45.94;102720.31;4974880;28;20057;-79
2021/04/23 09:57:39;;;;;;;16.27;3.08;;;;;;;12.34;46.47;102710.19;4988344;28;20108;-79
2021/04/23 10:00:11;;;;;;;12.05;2.45;;;;;;;12.05;45.45;102715.72;4973399;28;20432;-76
2021/04/23 10:02:37;;;;;;;15.38;2.75;;;;;;;12.27;47.85;102720.28;4972638;28;20057;-79
2021/04/23 10:05:04;;;;;;;14.93;2.50;;;;;;;12.01;44.31;102724.75;4974384;28;20045;-78
2021/04/23 10:07:34;;;;;;;16.75;2.97;;;;;;;12.03;43.41;102724.66;4996517;28;20136;-75
2021/04/23 10:10:11;;;;;;;16.85;2.67;;;;;;;12.21;44.43;102719.91;4989024;28;20042;-77
2021/04/23 10:12:45;;;;;;;13.52;2.78;;;;;;;12.40;43.31;102724.69;5013439;28;20468;-77
2021/04/23 10:15:14;;;;;;;16.58;2.85;;;;;;;12.69;44.72;102722.56;4994753;28;20056;-77
2021/04/23 10:17:43;;;;;;;16.27;3.08;;;;;;;12.36;43.31;102731.13;5007053;28;20054;-78
2021/04/23 10:20:12;;;;;;;14.57;3.20;;;;;;;11.94;44.94;102727.91;5000145;28;20499;-77
2021/04/23 10:22:38;;;;;;;16.73;2.83;;;;;;;12.22;44.87;102730.31;4974265;28;20077;-79
2021/04/23 10:25:06;;;;;;;13.85;3.08;;;;;;;12.36;45.54;102733.75;4996137;28;20057;-79
2021/04/23 10:27:34;;;;;;;16.20;2.83;;;;;;;12.51;43.11;102730.00;4976891;28;20054;-77
2021/04/23 10:30:04;;;;;;;22.38;3.53;;;;;;;12.42;43.57;102735.94;4978170;28;20066;-80
2021/04/23 10:32:30;;;;;;;12.57;2.83;;;;;;;12.77;44.29;102728.13;5004727;28;20061;-80
2021/04/23 10:34:57;;;;;;;17.05;3.17;;;;;;;12.66;43.07;102728.06;4986308;28;20054;-77
2021/04/23 10:37:23;;;;;;;16.35;2.70;;;;;;;12.92;43.82;102736.69;5012171;28;20053;-77
2021/04/23 10:39:49;;;;;;;20.23;3.03;;;;;;;12.42;44.87;102723.59;4999995;28;20045;-76
2021/04/23 10:42:42;;;;;;;21.35;3.30;;;;;;;12.41;43.20;102728.97;5004879;28;20050;-75
2021/04/23 10:45:41;;;;;;;14.90;3.15;;;;;;;12.55;45.89;102731.47;4991557;28;20504;-79
2021/04/23 10:48:13;;;;;;;20.23;3.08;;;;;;;12.44;43.84;102729.59;4988708;28;20179;-81
2021/04/23 10:50:44;;;;;;;19.23;3.97;;;;;;;12.82;45.16;102727.78;5009284;28;20064;-79
2021/04/23 10:53:16;;;;;;;11.00;2.28;;;;;;;13.33;43.58;102721.41;5015640;28;20527;-79
2021/04/23 10:55:45;;;;;;;14.25;3.08;;;;;;;13.56;42.85;102730.19;5009694;28;20045;-78
2021/04/23 10:58:26;;;;;;;18.30;3.03;;;;;;;13.39;42.75;102724.41;5011044;28;20045;-78
2021/04/23 11:00:56;;;;;;;16.77;3.17;;;;;;;13.32;43.99;102725.84;4999712;28;20046;-78
2021/04/23 11:03:23;;;;;;;17.20;2.88;;;;;;;13.50;42.33;102735.94;5007633;28;20095;-80
2021/04/23 11:05:53;;;;;;;15.88;2.97;;;;;;;13.58;43.67;102733.53;5008151;28;20057;-78
2021/04/23 11:08:20;;;;;;;16.52;3.30;;;;;;;12.68;43.87;102736.69;5006013;28;20129;-79
2021/04/23 11:11:11;;;;;;;16.42;2.95;;;;;;;12.12;45.34;102736.31;4976707;28;20083;-79
2021/04/23 11:13:40;;;;;;;16.35;3.28;;;;;;;12.82;45.84;102720.69;4988936;28;20654;-77
2021/04/23 11:16:22;;;;;;;17.67;2.67;;;;;;;13.07;45.31;102732.06;4989294;28;20045;-78
2021/04/23 11:18:54;;;;;;;12.88;2.70;;;;;;;12.96;43.46;102737.28;4991044;28;20152;-79
2021/04/23 11:21:33;;;;;;;12.73;2.83;;;;;;;13.04;45.91;102732.31;5006599;28;20471;-77
2021/04/23 11:24:29;;;;;;;12.75;2.97;;;;;;;13.24;43.42;102725.53;4987099;28;20087;-78
2021/04/23 11:26:55;;;;;;;12.95;2.92;;;;;;;13.66;42.86;102725.06;4990165;28;20496;-79
2021/04/23 11:29:21;;;;;;;15.73;3.22;;;;;;;13.73;43.42;102713.06;4974540;28;20050;-79
2021/04/23 11:32:17;;;;;;;18.58;3.13;;;;;;;13.60;41.23;102735.13;5008304;28;20080;-77